Terminal Aerodrome Forecast
Issued by NWS

Home | Current Version | Previous Version | Text Only | Print | Product List | Glossary On
Versions: 1 2 3 4 5 6 7 8 9 10 11 12 13 14 15 16 17 18 19 20 21
000
FTUS44 KBMX 300520
TAFTCL
TAF
KTCL 300520Z 3006/0106 11005KT P6SM OVC080
     FM301200 12006KT P6SM BKN010 OVC200
     FM301500 18009KT P6SM OVC045
     FM301900 19006KT P6SM VCSH BKN070=

USA.gov is the U.S. government's official web portal to all federal, state and local government web resources and services.